Time;durP1;ratioP1;P1;durP2;ratioP2;P2;SDS_P1;SDS_P2;PMS_P1;PMS_P2;Temp;Humidity;BMP_temperature;BMP_pressure;BME280_temperature;BME280_humidity;BME280_pressure;Samples;Min_cycle;Max_cycle;Signal;HPM_P1;HPM_P2
2023/04/20 00:02:01;;;;;;;3.67;2.33;;;21.70;69.30;;;;;;5051639;28;20051;-68
2023/04/20 00:04:28;;;;;;;2.28;1.65;;;21.90;69.40;;;;;;5050921;28;20480;-68
2023/04/20 00:06:55;;;;;;;3.50;2.50;;;21.80;69.30;;;;;;5051528;28;20028;-67
2023/04/20 00:09:22;;;;;;;2.63;2.25;;;21.80;69.30;;;;;;5051491;28;20482;-69
2023/04/20 00:11:47;;;;;;;2.05;1.85;;;21.80;68.80;;;;;;5050405;28;20025;-69
2023/04/20 00:14:14;;;;;;;4.63;2.47;;;21.80;69.10;;;;;;5051615;28;20021;-68
2023/04/20 00:16:40;;;;;;;3.70;2.58;;;21.80;69.70;;;;;;5051750;28;20053;-69
2023/04/20 00:19:06;;;;;;;3.42;2.17;;;21.80;70.00;;;;;;5050724;28;20122;-69
2023/04/20 00:21:32;;;;;;;2.38;2.00;;;21.90;70.00;;;;;;5051957;28;20028;-69
2023/04/20 00:23:58;;;;;;;4.38;2.33;;;21.80;69.80;;;;;;5051924;28;20127;-69
2023/04/20 00:26:24;;;;;;;5.28;2.50;;;21.80;69.50;;;;;;5050690;28;20104;-69
2023/04/20 00:28:50;;;;;;;7.13;2.97;;;21.80;69.30;;;;;;5051842;28;20025;-70
2023/04/20 00:31:17;;;;;;;3.85;2.53;;;21.80;69.00;;;;;;5051299;28;20032;-70
2023/04/20 00:33:42;;;;;;;4.97;2.28;;;21.90;68.80;;;;;;5050727;28;20017;-70
2023/04/20 00:36:08;;;;;;;3.25;1.90;;;21.90;68.70;;;;;;5051545;28;20379;-70
2023/04/20 00:38:34;;;;;;;2.60;2.40;;;21.80;68.20;;;;;;5051466;28;20048;-70
2023/04/20 00:41:00;;;;;;;2.40;2.20;;;21.90;68.40;;;;;;5050837;28;20025;-70
2023/04/20 00:43:25;;;;;;;2.45;2.25;;;21.80;68.10;;;;;;5051449;28;20036;-70
2023/04/20 00:45:51;;;;;;;2.35;2.08;;;21.80;68.30;;;;;;5051577;28;20064;-70
2023/04/20 00:48:17;;;;;;;3.13;2.20;;;21.80;68.40;;;;;;5052580;28;20047;-70
2023/04/20 00:50:44;;;;;;;4.85;1.80;;;21.90;68.40;;;;;;5055486;28;20043;-71
2023/04/20 00:53:10;;;;;;;2.50;1.98;;;21.80;68.50;;;;;;5054662;28;20029;-70
2023/04/20 00:55:37;;;;;;;2.95;2.20;;;21.90;68.60;;;;;;5054301;28;20397;-71
2023/04/20 00:58:03;;;;;;;3.08;2.00;;;21.80;68.10;;;;;;5054873;28;20056;-70
2023/04/20 01:00:29;;;;;;;5.20;2.17;;;21.80;68.60;;;;;;5055029;28;20049;-70
2023/04/20 01:02:55;;;;;;;2.08;1.80;;;21.80;68.70;;;;;;5054226;28;20017;-70
2023/04/20 01:05:21;;;;;;;2.33;1.92;;;21.90;68.80;;;;;;5054731;28;20087;-71
2023/04/20 01:07:47;;;;;;;2.25;1.77;;;21.80;68.80;;;;;;5054293;28;20025;-71
2023/04/20 01:10:13;;;;;;;2.17;1.98;;;21.90;68.80;;;;;;5054548;28;20361;-71
2023/04/20 01:12:38;;;;;;;3.83;2.00;;;21.80;68.70;;;;;;5054811;28;20033;-71
2023/04/20 01:15:05;;;;;;;2.60;1.95;;;21.90;68.90;;;;;;5053784;28;20155;-71
2023/04/20 01:17:32;;;;;;;2.10;1.95;;;21.80;68.70;;;;;;5054592;28;20036;-69
2023/04/20 01:19:58;;;;;;;4.07;1.90;;;21.80;68.90;;;;;;5054830;28;20021;-69
2023/04/20 01:22:24;;;;;;;1.85;1.48;;;21.80;68.60;;;;;;5053774;28;20039;-69
2023/04/20 01:24:50;;;;;;;2.10;1.90;;;21.90;68.90;;;;;;5054525;28;20041;-69
2023/04/20 01:27:16;;;;;;;4.32;1.73;;;21.80;68.90;;;;;;5054268;28;20358;-69
2023/04/20 01:29:42;;;;;;;2.92;1.90;;;21.90;69.00;;;;;;5053553;28;20051;-69
2023/04/20 01:32:08;;;;;;;2.90;2.28;;;21.80;68.90;;;;;;5053891;28;20048;-70
2023/04/20 01:34:33;;;;;;;5.05;1.95;;;21.90;68.90;;;;;;5054469;28;20025;-69
2023/04/20 01:36:59;;;;;;;2.53;2.00;;;21.90;68.70;;;;;;5053723;28;20113;-70
2023/04/20 01:39:25;;;;;;;2.25;1.83;;;21.70;68.70;;;;;;5054091;28;20503;-69
2023/04/20 01:41:51;;;;;;;2.47;2.15;;;21.80;68.90;;;;;;5054244;28;20029;-70
2023/04/20 01:44:16;;;;;;;3.55;1.85;;;21.80;68.40;;;;;;5052939;28;20041;-69
2023/04/20 01:46:42;;;;;;;1.92;1.55;;;21.80;68.80;;;;;;5054213;28;20032;-69
2023/04/20 01:49:08;;;;;;;1.80;1.70;;;21.90;68.70;;;;;;5054409;28;20029;-69
2023/04/20 01:51:34;;;;;;;2.30;2.10;;;21.90;68.60;;;;;;5053389;28;20021;-69
2023/04/20 01:54:00;;;;;;;1.95;1.85;;;21.80;68.70;;;;;;5053932;28;20033;-69
2023/04/20 01:56:26;;;;;;;4.28;1.60;;;21.90;68.80;;;;;;5053902;28;20035;-69
2023/04/20 01:58:51;;;;;;;2.00;1.80;;;21.90;68.70;;;;;;5053222;28;20029;-71
2023/04/20 02:01:17;;;;;;;2.03;1.77;;;21.90;68.90;;;;;;5053338;28;20028;-71
2023/04/20 02:03:42;;;;;;;3.70;2.15;;;21.80;68.70;;;;;;5053920;28;20037;-70
2023/04/20 02:06:08;;;;;;;2.38;2.15;;;21.90;68.80;;;;;;5053060;28;20528;-70
2023/04/20 02:08:34;;;;;;;2.20;1.60;;;21.90;68.80;;;;;;5053640;28;20411;-70
2023/04/20 02:11:00;;;;;;;2.58;1.67;;;21.80;68.70;;;;;;5052656;28;20388;-70
2023/04/20 02:13:25;;;;;;;2.72;1.70;;;21.80;68.50;;;;;;5053594;28;20034;-70
2023/04/20 02:15:51;;;;;;;2.67;2.05;;;21.80;68.90;;;;;;5053582;28;20021;-70
2023/04/20 02:18:16;;;;;;;3.15;1.90;;;21.80;68.60;;;;;;5052856;28;20441;-70
2023/04/20 02:20:43;;;;;;;1.83;1.73;;;21.70;68.80;;;;;;5053576;28;20025;-69
2023/04/20 02:23:09;;;;;;;2.42;1.85;;;21.80;69.00;;;;;;5053316;28;20040;-69
2023/04/20 02:25:35;;;;;;;2.10;1.90;;;21.80;68.60;;;;;;5052533;28;20508;-69
2023/04/20 02:28:00;;;;;;;2.10;1.90;;;21.80;68.80;;;;;;5053236;28;20025;-70
2023/04/20 02:30:26;;;;;;;2.70;1.92;;;21.80;68.60;;;;;;5053175;28;20028;-69
2023/04/20 02:32:52;;;;;;;2.20;2.00;;;21.80;68.80;;;;;;5052445;28;20049;-70
2023/04/20 02:35:17;;;;;;;4.60;1.85;;;21.70;68.80;;;;;;5052831;28;20028;-69
2023/04/20 02:37:43;;;;;;;2.88;2.05;;;21.80;68.90;;;;;;5053287;28;20033;-70
2023/04/20 02:40:09;;;;;;;3.35;1.98;;;21.80;69.00;;;;;;5052270;28;20032;-70
2023/04/20 02:42:35;;;;;;;1.90;1.80;;;21.70;69.00;;;;;;5053129;28;20381;-69
2023/04/20 02:45:01;;;;;;;2.83;2.20;;;21.80;69.10;;;;;;5052615;28;20033;-69
2023/04/20 02:47:26;;;;;;;2.17;1.98;;;21.70;69.10;;;;;;5052484;28;20045;-69
2023/04/20 02:49:52;;;;;;;3.35;1.85;;;21.70;69.20;;;;;;5053142;28;20437;-69
2023/04/20 02:52:17;;;;;;;2.00;1.73;;;21.80;69.30;;;;;;5052562;28;20393;-69
2023/04/20 02:54:43;;;;;;;2.08;1.88;;;21.60;69.20;;;;;;5052005;28;20108;-69
2023/04/20 02:57:10;;;;;;;2.10;1.90;;;21.70;69.50;;;;;;5052434;28;20040;-69
2023/04/20 02:59:36;;;;;;;3.95;2.10;;;21.70;69.60;;;;;;5052463;28;20052;-69
2023/04/20 03:02:02;;;;;;;2.45;1.63;;;21.80;69.80;;;;;;5051881;28;20044;-69
2023/04/20 03:04:27;;;;;;;2.20;2.00;;;21.80;69.80;;;;;;5052493;28;20033;-69
2023/04/20 03:06:53;;;;;;;2.05;1.73;;;21.70;69.70;;;;;;5052778;28;20017;-69
2023/04/20 03:09:19;;;;;;;2.17;1.90;;;21.70;70.00;;;;;;5051576;28;20067;-69
2023/04/20 03:11:45;;;;;;;1.90;1.80;;;21.70;70.00;;;;;;5051825;28;20021;-69
2023/04/20 03:14:10;;;;;;;2.83;1.98;;;21.80;70.00;;;;;;5052116;28;20357;-69
2023/04/20 03:16:36;;;;;;;2.15;1.52;;;21.80;70.10;;;;;;5051912;28;20029;-70
2023/04/20 03:19:03;;;;;;;2.00;1.75;;;21.80;70.00;;;;;;5052325;28;20404;-69
2023/04/20 03:21:28;;;;;;;2.42;1.80;;;21.70;70.30;;;;;;5051565;28;20032;-70
2023/04/20 03:23:54;;;;;;;2.38;2.17;;;21.70;70.20;;;;;;5052423;28;20032;-69
2023/04/20 03:26:19;;;;;;;3.28;1.73;;;21.80;70.20;;;;;;5051919;28;20025;-69
2023/04/20 03:28:45;;;;;;;2.55;1.75;;;21.80;70.40;;;;;;5051530;28;20108;-69
2023/04/20 03:31:11;;;;;;;1.60;1.50;;;21.80;70.30;;;;;;5051724;28;20021;-69
2023/04/20 03:33:36;;;;;;;2.75;1.80;;;21.80;70.40;;;;;;5052084;28;20033;-69
2023/04/20 03:36:03;;;;;;;4.95;1.98;;;21.70;70.70;;;;;;5051115;28;20025;-69
2023/04/20 03:38:29;;;;;;;2.80;1.90;;;21.70;70.80;;;;;;5052216;28;20025;-69
2023/04/20 03:40:55;;;;;;;2.17;1.98;;;21.70;70.70;;;;;;5052127;28;20028;-69
2023/04/20 03:43:20;;;;;;;1.88;1.65;;;21.70;71.00;;;;;;5051034;28;20389;-68
2023/04/20 03:45:46;;;;;;;2.47;2.03;;;21.80;71.10;;;;;;5052541;28;20473;-69
2023/04/20 03:48:11;;;;;;;1.90;1.63;;;21.80;71.20;;;;;;5052042;28;20528;-69
2023/04/20 03:50:37;;;;;;;2.53;1.90;;;21.80;71.20;;;;;;5051231;28;20063;-69
2023/04/20 03:53:02;;;;;;;3.50;1.88;;;21.80;71.60;;;;;;5051770;28;20029;-69
2023/04/20 03:55:28;;;;;;;2.10;1.90;;;21.80;71.80;;;;;;5051984;28;20111;-69
2023/04/20 03:57:53;;;;;;;2.28;1.83;;;21.80;71.80;;;;;;5051114;28;20058;-69
2023/04/20 04:00:19;;;;;;;2.75;1.85;;;21.80;71.90;;;;;;5051249;28;20059;-69
2023/04/20 04:02:45;;;;;;;2.33;1.67;;;21.80;72.00;;;;;;5052141;28;20047;-69
2023/04/20 04:05:11;;;;;;;1.98;1.75;;;21.80;72.20;;;;;;5051215;28;20040;-69
2023/04/20 04:07:36;;;;;;;1.95;1.85;;;21.80;72.30;;;;;;5051919;28;20384;-68
2023/04/20 04:10:04;;;;;;;1.98;1.88;;;21.90;72.30;;;;;;5051570;28;20032;-70
2023/04/20 04:12:30;;;;;;;1.92;1.83;;;21.80;72.40;;;;;;5050992;28;20025;-70
2023/04/20 04:14:55;;;;;;;1.70;1.60;;;21.90;72.60;;;;;;5051835;28;20372;-69
2023/04/20 04:17:21;;;;;;;2.03;1.73;;;21.80;72.70;;;;;;5051264;28;20036;-69
2023/04/20 04:19:46;;;;;;;1.80;1.70;;;21.80;72.70;;;;;;5051009;28;20523;-69
2023/04/20 04:22:12;;;;;;;1.80;1.70;;;21.80;72.80;;;;;;5051907;28;20036;-69
2023/04/20 04:24:37;;;;;;;5.05;1.95;;;21.80;73.10;;;;;;5054462;28;20043;-69
2023/04/20 04:27:04;;;;;;;2.75;2.33;;;21.90;73.60;;;;;;5055287;28;20035;-69
2023/04/20 04:29:30;;;;;;;1.85;1.65;;;21.90;73.30;;;;;;5055442;28;20515;-69
2023/04/20 04:31:57;;;;;;;2.67;1.48;;;21.80;73.30;;;;;;5054739;28;20056;-69
2023/04/20 04:34:22;;;;;;;2.15;1.73;;;21.80;73.40;;;;;;5055098;28;20029;-69
2023/04/20 04:36:49;;;;;;;2.42;1.60;;;21.80;73.50;;;;;;5055564;28;20443;-69
2023/04/20 04:39:14;;;;;;;4.80;1.95;;;21.80;73.60;;;;;;5054364;28;20476;-70
2023/04/20 04:41:40;;;;;;;1.67;1.58;;;21.80;74.50;;;;;;5055310;28;20035;-70
2023/04/20 04:44:06;;;;;;;1.98;1.70;;;21.90;74.00;;;;;;5055045;28;20087;-70
2023/04/20 04:46:32;;;;;;;1.80;1.63;;;21.90;74.00;;;;;;5054197;28;20025;-70
2023/04/20 04:49:01;;;;;;;2.40;2.20;;;21.80;74.00;;;;;;5055412;28;20051;-70
2023/04/20 04:51:27;;;;;;;3.00;1.70;;;21.80;74.10;;;;;;5055131;28;20025;-70
2023/04/20 04:53:52;;;;;;;3.45;1.95;;;21.90;74.30;;;;;;5054480;28;20028;-71
2023/04/20 04:56:19;;;;;;;2.00;1.63;;;21.90;74.40;;;;;;5054641;28;20025;-71
2023/04/20 04:58:45;;;;;;;1.80;1.48;;;21.90;74.50;;;;;;5055231;28;20049;-71
2023/04/20 05:01:10;;;;;;;2.05;1.83;;;21.80;74.60;;;;;;5054115;28;20057;-71
2023/04/20 05:03:36;;;;;;;2.35;1.67;;;21.90;74.70;;;;;;5054933;28;20032;-71
2023/04/20 05:06:02;;;;;;;2.55;1.80;;;21.90;74.80;;;;;;5054647;28;20029;-70
2023/04/20 05:08:27;;;;;;;1.80;1.65;;;21.90;74.90;;;;;;5054079;28;20108;-70
2023/04/20 05:10:53;;;;;;;3.60;1.42;;;21.80;74.90;;;;;;5054712;28;20384;-69
2023/04/20 05:13:18;;;;;;;2.20;1.77;;;21.90;75.00;;;;;;5054384;28;20021;-69
2023/04/20 05:15:44;;;;;;;1.88;1.70;;;21.80;75.10;;;;;;5053861;28;20029;-69
2023/04/20 05:18:09;;;;;;;2.53;1.52;;;21.90;75.30;;;;;;5054289;28;20043;-70
2023/04/20 05:20:35;;;;;;;2.92;1.80;;;21.80;75.30;;;;;;5054625;28;20036;-69
2023/04/20 05:23:01;;;;;;;1.83;1.50;;;21.90;75.40;;;;;;5053636;28;20811;-69
2023/04/20 05:25:26;;;;;;;3.38;1.73;;;21.90;75.50;;;;;;5054296;28;20531;-69
2023/04/20 05:27:52;;;;;;;1.83;1.30;;;21.90;75.50;;;;;;5058207;28;20074;-70
2023/04/20 05:30:17;;;;;;;2.50;1.42;;;22.00;75.80;;;;;;5073769;28;20111;-70
2023/04/20 05:32:43;;;;;;;1.80;1.42;;;21.90;75.60;;;;;;5074141;28;20044;-70
2023/04/20 05:35:08;;;;;;;1.83;1.60;;;21.90;75.70;;;;;;5053009;28;20025;-70
2023/04/20 05:37:34;;;;;;;3.30;1.48;;;21.90;75.70;;;;;;5054212;28;20276;-70
2023/04/20 05:40:00;;;;;;;2.40;1.77;;;21.90;75.90;;;;;;5054175;28;20036;-70
2023/04/20 05:42:25;;;;;;;2.28;1.50;;;21.90;75.80;;;;;;5053425;28;20071;-70
2023/04/20 05:44:51;;;;;;;1.35;1.15;;;22.00;75.90;;;;;;5053966;28;20471;-70
2023/04/20 05:47:16;;;;;;;3.72;1.60;;;22.00;75.90;;;;;;5053972;28;20029;-71
2023/04/20 05:49:42;;;;;;;1.50;1.40;;;21.90;75.80;;;;;;5053570;28;20032;-71
2023/04/20 05:52:07;;;;;;;2.08;1.40;;;21.90;75.70;;;;;;5053845;28;20020;-72
2023/04/20 05:54:33;;;;;;;2.78;1.52;;;21.90;75.70;;;;;;5053878;28;20040;-72
2023/04/20 05:56:59;;;;;;;2.45;1.40;;;21.90;75.50;;;;;;5053161;28;20345;-71
2023/04/20 05:59:25;;;;;;;1.40;1.23;;;22.00;75.50;;;;;;5053551;28;20036;-72
2023/04/20 06:01:51;;;;;;;2.08;1.38;;;22.00;75.30;;;;;;5054073;28;20017;-71
2023/04/20 06:04:17;;;;;;;2.53;1.50;;;21.90;75.20;;;;;;5052743;28;20039;-72
2023/04/20 06:06:43;;;;;;;3.05;1.75;;;22.00;75.20;;;;;;5053898;28;20017;-72
2023/04/20 06:09:08;;;;;;;2.88;1.42;;;22.00;74.90;;;;;;5053628;28;20496;-72
2023/04/20 06:11:34;;;;;;;2.40;1.20;;;22.00;75.00;;;;;;5053258;28;20028;-72
2023/04/20 06:14:00;;;;;;;1.50;1.27;;;21.90;74.90;;;;;;5053949;28;20469;-71
2023/04/20 06:16:25;;;;;;;3.47;1.35;;;22.00;74.90;;;;;;5053453;28;20482;-71
2023/04/20 06:18:51;;;;;;;1.58;1.48;;;22.00;74.70;;;;;;5052834;28;20036;-71
2023/04/20 06:21:17;;;;;;;2.35;1.30;;;22.00;74.60;;;;;;5052942;28;20362;-70
2023/04/20 06:23:43;;;;;;;2.28;1.60;;;22.00;74.60;;;;;;5053307;28;20025;-70
2023/04/20 06:26:09;;;;;;;2.35;1.30;;;22.00;74.70;;;;;;5052579;28;20033;-69
2023/04/20 06:28:35;;;;;;;2.30;1.50;;;22.00;74.60;;;;;;5053311;28;20031;-69
2023/04/20 06:31:02;;;;;;;2.28;1.63;;;22.00;74.60;;;;;;5053028;28;20060;-69
2023/04/20 06:33:27;;;;;;;2.42;1.50;;;22.00;74.50;;;;;;5052369;28;20385;-69
2023/04/20 06:35:53;;;;;;;2.08;1.50;;;22.00;74.40;;;;;;5053009;28;20036;-69
2023/04/20 06:38:19;;;;;;;4.00;1.45;;;22.00;74.40;;;;;;5051962;28;20480;-69
2023/04/20 06:40:45;;;;;;;2.85;1.30;;;22.00;74.30;;;;;;5053034;28;20036;-69
2023/04/20 06:43:10;;;;;;;2.33;1.52;;;22.00;74.30;;;;;;5052655;28;20029;-68
2023/04/20 06:45:36;;;;;;;3.08;1.85;;;22.00;74.00;;;;;;5061714;28;20101;-68
2023/04/20 06:48:02;;;;;;;2.40;1.58;;;22.00;74.20;;;;;;5064117;28;20114;-69
2023/04/20 06:50:27;;;;;;;1.90;1.45;;;22.00;74.30;;;;;;5051047;28;20346;-69
2023/04/20 06:52:53;;;;;;;1.92;1.42;;;22.00;74.10;;;;;;5051488;28;20107;-69
2023/04/20 06:55:18;;;;;;;4.55;1.63;;;22.00;74.20;;;;;;5050920;28;20029;-69
2023/04/20 06:57:44;;;;;;;3.55;1.83;;;22.00;74.20;;;;;;5050761;28;20021;-69
2023/04/20 07:00:11;;;;;;;1.70;1.42;;;22.00;74.20;;;;;;5050633;28;20099;-70
2023/04/20 07:02:48;;;;;;;2.28;1.60;;;22.10;74.30;;;;;;5051185;28;20033;-69
2023/04/20 07:05:14;;;;;;;1.83;1.52;;;22.10;74.80;;;;;;5050472;28;20032;-69
2023/04/20 07:07:40;;;;;;;2.08;1.55;;;22.20;74.20;;;;;;5050955;28;20039;-69
2023/04/20 07:10:08;;;;;;;1.55;1.45;;;22.30;74.00;;;;;;5050010;28;20025;-69
2023/04/20 07:12:35;;;;;;;4.05;1.70;;;22.30;73.90;;;;;;5049573;28;20029;-69
2023/04/20 07:15:05;;;;;;;1.88;1.50;;;22.30;73.90;;;;;;5050848;28;20025;-69
2023/04/20 07:17:31;;;;;;;1.50;1.30;;;22.40;73.90;;;;;;5050855;28;20017;-69
2023/04/20 07:19:57;;;;;;;3.63;1.67;;;22.50;74.10;;;;;;5051412;28;20035;-70
2023/04/20 07:22:23;;;;;;;2.88;1.38;;;22.60;74.20;;;;;;5050511;28;20021;-69
2023/04/20 07:24:50;;;;;;;2.00;1.50;;;22.70;74.20;;;;;;5051469;28;20116;-70
2023/04/20 07:27:15;;;;;;;2.05;1.83;;;22.70;74.40;;;;;;5050570;28;20053;-69
2023/04/20 07:29:41;;;;;;;2.97;1.40;;;22.70;74.60;;;;;;5049817;28;20083;-70
2023/04/20 07:32:06;;;;;;;3.28;1.55;;;22.80;74.80;;;;;;5051179;28;20068;-70
2023/04/20 07:34:32;;;;;;;1.40;1.30;;;22.70;75.00;;;;;;5051211;28;20108;-69
2023/04/20 07:36:57;;;;;;;2.33;1.60;;;22.80;75.00;;;;;;5052246;28;20031;-69
2023/04/20 07:39:26;;;;;;;3.88;1.60;;;22.80;75.10;;;;;;5051721;28;20119;-68
2023/04/20 07:41:51;;;;;;;1.80;1.60;;;22.80;75.40;;;;;;5049281;28;20650;-77
2023/04/20 07:44:17;;;;;;;1.98;1.70;;;22.70;75.30;;;;;;5050932;28;20071;-70
2023/04/20 07:46:42;;;;;;;3.10;1.73;;;22.80;75.30;;;;;;5049933;28;20021;-70
2023/04/20 07:49:08;;;;;;;2.65;1.80;;;22.80;75.50;;;;;;5048664;28;20031;-73
2023/04/20 07:51:34;;;;;;;3.83;2.15;;;22.80;75.30;;;;;;5050100;28;20100;-68
2023/04/20 07:53:59;;;;;;;4.13;2.00;;;22.80;75.30;;;;;;5049794;28;20029;-69
2023/04/20 07:56:25;;;;;;;5.57;2.15;;;22.70;75.30;;;;;;5047970;28;20048;-69
2023/04/20 07:58:51;;;;;;;4.22;1.77;;;22.70;75.70;;;;;;5049551;28;20033;-69
2023/04/20 08:01:16;;;;;;;2.90;1.98;;;22.70;75.80;;;;;;5051465;28;20068;-70
2023/04/20 08:03:42;;;;;;;3.70;1.70;;;22.70;76.00;;;;;;5055440;28;20332;-68
2023/04/20 08:06:08;;;;;;;3.25;2.10;;;22.70;77.00;;;;;;5059104;28;20051;-66
2023/04/20 08:08:34;;;;;;;6.00;1.98;;;22.70;77.10;;;;;;5051811;28;20486;-68
2023/04/20 08:11:00;;;;;;;2.83;1.90;;;22.80;76.60;;;;;;5050133;28;20376;-68
2023/04/20 08:13:27;;;;;;;2.20;1.98;;;22.80;76.30;;;;;;5051476;28;20025;-69
2023/04/20 08:15:52;;;;;;;4.35;2.28;;;22.80;76.30;;;;;;5051463;28;20017;-66
2023/04/20 08:18:18;;;;;;;3.90;1.95;;;22.80;76.50;;;;;;5062077;28;20025;-66
2023/04/20 08:20:45;;;;;;;2.97;1.60;;;22.90;76.20;;;;;;5070344;28;20028;-63
2023/04/20 08:23:10;;;;;;;7.25;1.70;;;22.90;76.20;;;;;;5071622;28;20031;-64
2023/04/20 08:25:39;;;;;;;4.70;1.73;;;22.80;76.20;;;;;;5070849;28;20036;-62
2023/04/20 08:28:05;;;;;;;3.80;2.70;;;22.70;76.10;;;;;;5071444;28;20055;-63
2023/04/20 08:30:30;;;;;;;4.53;2.08;;;22.70;76.20;;;;;;5053057;28;20498;-63
2023/04/20 08:32:57;;;;;;;9.18;2.38;;;22.70;76.50;;;;;;5050328;28;20045;-66
2023/04/20 08:35:23;;;;;;;16.15;2.40;;;22.70;76.50;;;;;;5049232;28;20052;-63
2023/04/20 08:37:49;;;;;;;3.70;1.88;;;22.70;76.50;;;;;;5047545;28;20052;-63
2023/04/20 08:40:16;;;;;;;4.95;2.40;;;22.70;76.60;;;;;;5048460;28;20464;-64
2023/04/20 08:42:41;;;;;;;6.60;2.10;;;22.70;78.00;;;;;;5047612;28;20039;-61
2023/04/20 08:45:07;;;;;;;4.13;2.10;;;22.80;77.70;;;;;;5048550;28;20032;-63
2023/04/20 08:47:34;;;;;;;14.73;3.20;;;22.80;79.20;;;;;;5047765;28;20388;-63
2023/04/20 08:50:02;;;;;;;4.57;2.20;;;22.80;76.80;;;;;;5047302;28;20029;-64
2023/04/20 08:52:28;;;;;;;2.38;1.85;;;22.70;76.60;;;;;;5046948;28;20029;-64
2023/04/20 08:54:53;;;;;;;3.08;1.90;;;22.70;76.60;;;;;;5046513;28;20037;-64
2023/04/20 08:57:19;;;;;;;6.18;2.00;;;22.60;76.70;;;;;;5047249;28;20104;-64
2023/04/20 08:59:45;;;;;;;2.28;1.65;;;22.50;76.70;;;;;;5046742;28;20074;-64
2023/04/20 09:02:12;;;;;;;3.03;1.90;;;22.50;76.70;;;;;;5047266;28;20048;-64
2023/04/20 09:04:39;;;;;;;2.63;2.00;;;22.50;76.70;;;;;;5047676;28;20041;-64
2023/04/20 09:07:05;;;;;;;2.92;1.67;;;22.40;76.80;;;;;;5048059;28;20049;-64
2023/04/20 09:09:31;;;;;;;2.63;2.05;;;22.40;76.90;;;;;;5050355;28;20056;-64
2023/04/20 09:12:02;;;;;;;3.25;1.90;;;22.40;76.80;;;;;;5052930;28;20411;-64
2023/04/20 09:14:28;;;;;;;2.38;1.55;;;22.30;76.80;;;;;;5053773;28;20473;-64
2023/04/20 09:16:59;;;;;;;2.38;1.80;;;22.30;76.90;;;;;;5054821;28;20060;-64
2023/04/20 09:19:26;;;;;;;2.90;1.83;;;22.30;76.90;;;;;;5054656;28;20464;-64
2023/04/20 09:21:54;;;;;;;2.53;2.00;;;22.30;77.00;;;;;;5054201;28;20037;-64
2023/04/20 09:24:20;;;;;;;2.65;1.77;;;22.20;76.90;;;;;;5054246;28;20496;-64
2023/04/20 09:26:46;;;;;;;4.20;2.25;;;22.20;76.90;;;;;;5054684;28;20017;-63
2023/04/20 09:29:19;;;;;;;2.80;2.20;;;22.20;76.90;;;;;;5054038;28;20419;-64
2023/04/20 09:31:45;;;;;;;4.03;2.00;;;22.20;77.00;;;;;;5054495;28;20504;-64
2023/04/20 09:34:11;;;;;;;3.33;1.77;;;22.10;76.90;;;;;;5053841;28;20029;-61
2023/04/20 09:36:42;;;;;;;3.42;1.80;;;22.10;77.00;;;;;;5054396;28;20119;-61
2023/04/20 09:39:10;;;;;;;2.30;1.70;;;22.10;77.10;;;;;;5054122;28;20404;-63
2023/04/20 09:41:36;;;;;;;2.03;1.65;;;22.10;77.30;;;;;;5053578;28;20476;-62
2023/04/20 09:44:03;;;;;;;2.30;1.80;;;22.10;77.20;;;;;;5053886;28;20079;-63
2023/04/20 09:46:30;;;;;;;2.63;1.60;;;22.10;77.10;;;;;;5054193;28;20353;-61
2023/04/20 09:49:02;;;;;;;1.70;1.60;;;22.10;77.10;;;;;;5053606;28;20071;-63
2023/04/20 09:51:28;;;;;;;2.08;1.58;;;22.10;77.30;;;;;;5054234;28;20032;-63
2023/04/20 09:53:58;;;;;;;3.25;1.65;;;22.10;77.30;;;;;;5054104;28;20373;-63
2023/04/20 09:56:25;;;;;;;2.97;1.65;;;22.00;77.30;;;;;;5052924;28;20040;-63
2023/04/20 09:58:52;;;;;;;4.60;1.80;;;22.10;77.30;;;;;;5054350;28;20028;-63
2023/04/20 10:01:19;;;;;;;9.18;1.92;;;22.00;77.60;;;;;;5053241;28;20033;-63
2023/04/20 10:03:45;;;;;;;2.05;1.92;;;22.00;77.30;;;;;;5052715;28;20021;-62
2023/04/20 10:06:26;;;;;;;2.17;1.98;;;22.00;77.30;;;;;;5053277;28;20469;-63
2023/04/20 10:08:53;;;;;;;1.80;1.70;;;22.00;77.50;;;;;;5048660;28;20033;-63
2023/04/20 10:11:28;;;;;;;2.65;1.60;;;22.00;77.50;;;;;;5052160;28;20024;-62
2023/04/20 10:13:55;;;;;;;2.10;1.90;;;22.00;77.40;;;;;;5052559;28;20021;-63
2023/04/20 10:16:21;;;;;;;2.35;1.85;;;22.00;77.50;;;;;;5051610;28;20480;-63
2023/04/20 10:19:04;;;;;;;2.92;1.67;;;22.10;77.60;;;;;;5051296;28;20063;-63
2023/04/20 10:21:33;;;;;;;3.03;2.10;;;22.00;77.60;;;;;;5050136;28;20526;-63
2023/04/20 10:24:00;;;;;;;3.40;2.10;;;22.00;77.60;;;;;;5052512;28;20075;-63
2023/04/20 10:26:44;;;;;;;5.28;1.88;;;22.00;77.70;;;;;;5053137;28;20025;-63
2023/04/20 10:29:23;;;;;;;1.88;1.58;;;22.00;77.80;;;;;;5065796;28;20029;-63
2023/04/20 10:31:49;;;;;;;2.90;2.08;;;22.00;77.80;;;;;;5052013;28;20532;-63
2023/04/20 10:34:14;;;;;;;3.83;2.00;;;22.00;77.90;;;;;;5053032;28;20126;-63
2023/04/20 10:36:40;;;;;;;9.90;2.47;;;22.00;77.90;;;;;;5053025;28;20464;-63
2023/04/20 10:39:16;;;;;;;4.25;2.10;;;22.00;78.10;;;;;;5051569;28;20024;-63
2023/04/20 10:42:00;;;;;;;2.90;2.00;;;22.00;78.30;;;;;;5052605;28;20124;-63
2023/04/20 10:44:26;;;;;;;2.42;2.22;;;22.10;78.10;;;;;;5052049;28;20037;-63
2023/04/20 10:46:52;;;;;;;2.75;2.20;;;22.10;78.20;;;;;;5051916;28;20101;-63
2023/04/20 10:49:18;;;;;;;5.32;2.15;;;22.10;78.20;;;;;;5052436;28;20029;-63
2023/04/20 10:51:48;;;;;;;4.82;2.47;;;22.10;78.50;;;;;;5051617;28;20040;-64
2023/04/20 10:54:13;;;;;;;9.70;2.63;;;22.10;78.50;;;;;;5051957;28;20060;-64
2023/04/20 10:56:41;;;;;;;4.68;2.60;;;22.10;78.60;;;;;;5052666;28;20053;-63
2023/04/20 10:59:11;;;;;;;3.58;2.35;;;22.10;78.50;;;;;;5051943;28;20086;-66
2023/04/20 11:01:37;;;;;;;3.33;2.22;;;22.10;78.50;;;;;;5051920;28;20067;-64
2023/04/20 11:04:03;;;;;;;32.00;2.60;;;22.00;78.50;;;;;;5051918;28;20056;-64
2023/04/20 11:06:30;;;;;;;3.85;2.50;;;22.10;79.00;;;;;;5051561;28;20036;-64
2023/04/20 11:08:56;;;;;;;2.80;2.60;;;22.00;78.30;;;;;;5052380;28;20028;-64
2023/04/20 11:11:24;;;;;;;2.72;2.53;;;22.00;78.30;;;;;;5051938;28;20435;-64
2023/04/20 11:13:50;;;;;;;2.30;2.10;;;22.10;78.30;;;;;;5052025;28;20020;-64
2023/04/20 11:16:17;;;;;;;4.40;2.85;;;22.10;78.40;;;;;;5052531;28;20396;-64
2023/04/20 11:18:53;;;;;;;8.95;2.28;;;22.10;78.30;;;;;;5052509;28;20580;-64
2023/04/20 11:21:20;;;;;;;2.88;2.40;;;22.10;78.30;;;;;;5051964;28;20428;-64
2023/04/20 11:23:48;;;;;;;3.78;2.22;;;22.10;78.30;;;;;;5052300;28;20426;-64
2023/04/20 11:26:14;;;;;;;2.80;2.38;;;22.10;78.20;;;;;;5052445;28;20112;-64
2023/04/20 11:28:53;;;;;;;2.60;2.15;;;22.10;78.20;;;;;;5052094;28;20468;-64
2023/04/20 11:31:19;;;;;;;2.78;2.50;;;22.10;78.20;;;;;;5051848;28;20033;-64
2023/04/20 11:33:44;;;;;;;4.55;2.42;;;22.10;78.20;;;;;;5051089;28;20025;-64
2023/04/20 11:36:23;;;;;;;4.70;2.65;;;22.20;78.20;;;;;;5052044;28;20074;-64
2023/04/20 11:38:49;;;;;;;3.67;2.40;;;22.20;78.30;;;;;;5051259;28;20523;-64
2023/04/20 11:41:18;;;;;;;5.95;2.63;;;22.10;78.10;;;;;;5050890;28;20032;-64
2023/04/20 11:43:44;;;;;;;2.60;2.40;;;22.20;78.30;;;;;;5047626;28;20021;-65
2023/04/20 11:46:17;;;;;;;3.75;2.60;;;22.20;78.40;;;;;;5050602;28;20036;-64
2023/04/20 11:48:43;;;;;;;5.82;2.50;;;22.30;78.90;;;;;;5048322;28;20476;-64
2023/04/20 11:51:09;;;;;;;7.40;2.17;;;22.40;78.40;;;;;;5050400;28;20113;-64
2023/04/20 11:53:35;;;;;;;12.55;3.28;;;22.50;78.10;;;;;;5051062;28;20053;-65
2023/04/20 11:56:01;;;;;;;3.75;2.22;;;22.50;77.60;;;;;;5050075;28;20040;-66
2023/04/20 11:58:26;;;;;;;8.65;2.42;;;22.50;77.80;;;;;;5050816;28;20036;-64
2023/04/20 12:00:52;;;;;;;7.82;2.03;;;22.60;80.40;;;;;;5051192;28;20036;-65
2023/04/20 12:03:17;;;;;;;6.65;2.85;;;22.70;77.30;;;;;;5049281;28;20029;-65
2023/04/20 12:05:43;;;;;;;3.40;2.38;;;22.70;77.50;;;;;;5051246;28;20033;-65
2023/04/20 12:08:08;;;;;;;3.58;2.25;;;22.70;78.90;;;;;;5050952;28;20067;-65
2023/04/20 12:10:34;;;;;;;5.85;2.28;;;22.80;77.40;;;;;;5050181;28;20112;-65
2023/04/20 12:13:00;;;;;;;3.85;2.33;;;22.90;77.50;;;;;;5050220;28;20037;-67
2023/04/20 12:15:26;;;;;;;7.63;2.42;;;22.90;77.00;;;;;;5050903;28;20433;-66
2023/04/20 12:17:52;;;;;;;7.00;2.97;;;23.00;77.90;;;;;;5050203;28;20314;-66
2023/04/20 12:20:17;;;;;;;10.18;2.50;;;23.00;77.60;;;;;;5050775;28;20111;-66
2023/04/20 12:22:43;;;;;;;13.20;2.10;;;23.00;79.00;;;;;;5051052;28;20104;-66
2023/04/20 12:25:08;;;;;;;2.80;2.00;;;23.20;77.90;;;;;;5049922;28;20068;-67
2023/04/20 12:27:34;;;;;;;5.88;2.17;;;23.20;77.50;;;;;;5050536;28;20415;-66
2023/04/20 12:30:00;;;;;;;3.35;1.85;;;23.20;76.90;;;;;;5050004;28;20036;-67
2023/04/20 12:32:25;;;;;;;4.57;2.30;;;23.30;77.80;;;;;;5050534;28;20610;-67
2023/04/20 12:34:51;;;;;;;4.95;2.08;;;23.20;76.60;;;;;;5050866;28;20032;-67
2023/04/20 12:37:17;;;;;;;5.43;2.15;;;23.30;77.60;;;;;;5049757;28;20040;-66
2023/04/20 12:39:42;;;;;;;2.65;2.30;;;23.30;76.70;;;;;;5050518;28;20115;-67
2023/04/20 12:42:08;;;;;;;4.60;2.75;;;23.30;76.60;;;;;;5049079;28;20025;-68